sensor_id;sensor_type;location;lat;lon;timestamp;P1;durP1;ratioP1;P2;durP2;ratioP2
16075;SDS011;8142;48.242;11.644;2022-08-11T00:01:12;5.57;;;4.23;;
16075;SDS011;8142;48.242;11.644;2022-08-11T00:03:42;4.70;;;4.20;;
16075;SDS011;8142;48.242;11.644;2022-08-11T00:06:10;5.10;;;3.80;;
16075;SDS011;8142;48.242;11.644;2022-08-11T00:08:38;7.17;;;4.50;;
16075;SDS011;8142;48.242;11.644;2022-08-11T00:11:06;7.27;;;4.37;;
16075;SDS011;8142;48.242;11.644;2022-08-11T00:13:38;5.57;;;3.90;;
16075;SDS011;8142;48.242;11.644;2022-08-11T00:16:27;4.90;;;3.83;;
16075;SDS011;8142;48.242;11.644;2022-08-11T00:18:54;7.20;;;3.23;;
16075;SDS011;8142;48.242;11.644;2022-08-11T00:21:22;4.40;;;3.00;;
16075;SDS011;8142;48.242;11.644;2022-08-11T00:23:55;4.57;;;3.47;;
16075;SDS011;8142;48.242;11.644;2022-08-11T00:26:23;5.00;;;3.20;;
16075;SDS011;8142;48.242;11.644;2022-08-11T00:28:50;4.87;;;3.10;;
16075;SDS011;8142;48.242;11.644;2022-08-11T00:31:28;3.43;;;2.90;;
16075;SDS011;8142;48.242;11.644;2022-08-11T00:33:57;3.97;;;3.03;;
16075;SDS011;8142;48.242;11.644;2022-08-11T00:36:28;6.83;;;3.87;;
16075;SDS011;8142;48.242;11.644;2022-08-11T00:39:06;4.33;;;3.43;;
16075;SDS011;8142;48.242;11.644;2022-08-11T00:44:41;6.03;;;3.60;;
16075;SDS011;8142;48.242;11.644;2022-08-11T00:47:26;5.50;;;3.20;;
16075;SDS011;8142;48.242;11.644;2022-08-11T00:50:25;5.13;;;3.00;;
16075;SDS011;8142;48.242;11.644;2022-08-11T00:53:06;3.23;;;2.93;;
16075;SDS011;8142;48.242;11.644;2022-08-11T00:56:03;3.63;;;3.03;;
16075;SDS011;8142;48.242;11.644;2022-08-11T00:58:45;5.73;;;3.13;;
16075;SDS011;8142;48.242;11.644;2022-08-11T01:12:13;4.60;;;3.03;;
16075;SDS011;8142;48.242;11.644;2022-08-11T01:43:57;6.03;;;3.17;;
16075;SDS011;8142;48.242;11.644;2022-08-11T01:46:56;4.13;;;2.80;;
16075;SDS011;8142;48.242;11.644;2022-08-11T01:50:23;3.60;;;2.60;;
16075;SDS011;8142;48.242;11.644;2022-08-11T01:52:59;3.43;;;2.93;;
16075;SDS011;8142;48.242;11.644;2022-08-11T01:55:52;3.00;;;2.73;;
16075;SDS011;8142;48.242;11.644;2022-08-11T01:58:41;3.93;;;3.00;;
16075;SDS011;8142;48.242;11.644;2022-08-11T02:09:25;3.27;;;2.67;;
16075;SDS011;8142;48.242;11.644;2022-08-11T02:12:14;3.87;;;3.07;;
16075;SDS011;8142;48.242;11.644;2022-08-11T02:15:14;3.47;;;2.97;;
16075;SDS011;8142;48.242;11.644;2022-08-11T02:20:40;5.53;;;3.03;;
16075;SDS011;8142;48.242;11.644;2022-08-11T02:27:01;3.93;;;3.10;;
16075;SDS011;8142;48.242;11.644;2022-08-11T02:29:23;3.43;;;2.70;;
16075;SDS011;8142;48.242;11.644;2022-08-11T02:37:26;3.30;;;3.00;;
16075;SDS011;8142;48.242;11.644;2022-08-11T02:42:25;6.27;;;3.03;;
16075;SDS011;8142;48.242;11.644;2022-08-11T02:45:15;3.40;;;2.73;;
16075;SDS011;8142;48.242;11.644;2022-08-11T02:48:24;3.60;;;3.30;;
16075;SDS011;8142;48.242;11.644;2022-08-11T02:54:31;4.40;;;3.13;;
16075;SDS011;8142;48.242;11.644;2022-08-11T02:57:28;3.70;;;3.30;;
16075;SDS011;8142;48.242;11.644;2022-08-11T03:00:09;5.90;;;3.60;;
16075;SDS011;8142;48.242;11.644;2022-08-11T03:02:50;3.37;;;3.00;;
16075;SDS011;8142;48.242;11.644;2022-08-11T03:05:41;5.03;;;3.33;;
16075;SDS011;8142;48.242;11.644;2022-08-11T03:08:24;4.33;;;3.10;;
16075;SDS011;8142;48.242;11.644;2022-08-11T03:11:10;3.83;;;3.20;;
16075;SDS011;8142;48.242;11.644;2022-08-11T03:14:06;4.43;;;3.20;;
16075;SDS011;8142;48.242;11.644;2022-08-11T03:19:59;4.17;;;3.13;;
16075;SDS011;8142;48.242;11.644;2022-08-11T03:22:40;4.30;;;3.13;;
16075;SDS011;8142;48.242;11.644;2022-08-11T03:28:33;3.60;;;3.30;;
16075;SDS011;8142;48.242;11.644;2022-08-11T03:34:20;4.10;;;3.30;;
16075;SDS011;8142;48.242;11.644;2022-08-11T03:39:41;4.13;;;3.50;;
16075;SDS011;8142;48.242;11.644;2022-08-11T03:42:34;3.73;;;3.30;;
16075;SDS011;8142;48.242;11.644;2022-08-11T03:47:49;3.93;;;3.23;;
16075;SDS011;8142;48.242;11.644;2022-08-11T04:04:12;5.77;;;3.23;;
16075;SDS011;8142;48.242;11.644;2022-08-11T04:12:56;4.53;;;3.60;;
16075;SDS011;8142;48.242;11.644;2022-08-11T04:22:07;3.87;;;3.40;;
16075;SDS011;8142;48.242;11.644;2022-08-11T04:30:52;5.03;;;3.33;;
16075;SDS011;8142;48.242;11.644;2022-08-11T04:36:20;4.93;;;3.60;;
16075;SDS011;8142;48.242;11.644;2022-08-11T04:39:43;4.43;;;3.70;;
16075;SDS011;8142;48.242;11.644;2022-08-11T04:55:19;4.57;;;3.80;;
16075;SDS011;8142;48.242;11.644;2022-08-11T05:10:17;4.50;;;3.70;;
16075;SDS011;8142;48.242;11.644;2022-08-11T05:13:02;6.23;;;3.87;;
16075;SDS011;8142;48.242;11.644;2022-08-11T05:15:53;5.60;;;3.70;;
16075;SDS011;8142;48.242;11.644;2022-08-11T05:18:51;4.10;;;3.60;;
16075;SDS011;8142;48.242;11.644;2022-08-11T05:21:38;5.47;;;3.90;;
16075;SDS011;8142;48.242;11.644;2022-08-11T05:27:52;3.90;;;3.40;;
16075;SDS011;8142;48.242;11.644;2022-08-11T05:30:48;4.93;;;3.60;;
16075;SDS011;8142;48.242;11.644;2022-08-11T05:33:48;6.00;;;3.80;;
16075;SDS011;8142;48.242;11.644;2022-08-11T05:36:37;5.77;;;3.93;;
16075;SDS011;8142;48.242;11.644;2022-08-11T05:39:15;5.43;;;3.80;;
16075;SDS011;8142;48.242;11.644;2022-08-11T05:42:03;4.67;;;3.47;;
16075;SDS011;8142;48.242;11.644;2022-08-11T05:44:50;5.53;;;3.87;;
16075;SDS011;8142;48.242;11.644;2022-08-11T05:47:49;3.97;;;3.30;;
16075;SDS011;8142;48.242;11.644;2022-08-11T05:50:34;4.30;;;3.60;;
16075;SDS011;8142;48.242;11.644;2022-08-11T05:53:20;4.90;;;3.40;;
16075;SDS011;8142;48.242;11.644;2022-08-11T05:56:04;6.50;;;3.70;;
16075;SDS011;8142;48.242;11.644;2022-08-11T05:58:51;4.20;;;3.23;;
16075;SDS011;8142;48.242;11.644;2022-08-11T06:01:28;3.77;;;3.47;;
16075;SDS011;8142;48.242;11.644;2022-08-11T06:03:56;3.50;;;3.03;;
16075;SDS011;8142;48.242;11.644;2022-08-11T06:06:50;4.30;;;3.20;;
16075;SDS011;8142;48.242;11.644;2022-08-11T06:09:30;4.20;;;3.13;;
16075;SDS011;8142;48.242;11.644;2022-08-11T06:11:58;4.13;;;3.33;;
16075;SDS011;8142;48.242;11.644;2022-08-11T06:14:42;3.40;;;3.10;;
16075;SDS011;8142;48.242;11.644;2022-08-11T06:17:10;5.00;;;3.47;;
16075;SDS011;8142;48.242;11.644;2022-08-11T06:19:41;5.50;;;3.07;;
16075;SDS011;8142;48.242;11.644;2022-08-11T06:22:11;4.40;;;3.23;;
16075;SDS011;8142;48.242;11.644;2022-08-11T06:24:50;5.50;;;3.27;;
16075;SDS011;8142;48.242;11.644;2022-08-11T06:27:20;6.20;;;3.20;;
16075;SDS011;8142;48.242;11.644;2022-08-11T06:29:48;6.03;;;3.33;;
16075;SDS011;8142;48.242;11.644;2022-08-11T06:32:15;4.50;;;3.13;;
16075;SDS011;8142;48.242;11.644;2022-08-11T06:35:00;6.83;;;3.30;;
16075;SDS011;8142;48.242;11.644;2022-08-11T06:37:44;5.73;;;3.20;;
16075;SDS011;8142;48.242;11.644;2022-08-11T06:43:17;7.30;;;3.00;;
16075;SDS011;8142;48.242;11.644;2022-08-11T06:48:27;4.73;;;2.93;;
16075;SDS011;8142;48.242;11.644;2022-08-11T06:50:58;3.57;;;2.97;;
16075;SDS011;8142;48.242;11.644;2022-08-11T06:56:28;5.93;;;2.70;;
16075;SDS011;8142;48.242;11.644;2022-08-11T06:59:15;4.90;;;2.90;;
16075;SDS011;8142;48.242;11.644;2022-08-11T07:14:02;4.37;;;2.80;;
16075;SDS011;8142;48.242;11.644;2022-08-11T07:16:48;4.83;;;3.33;;
16075;SDS011;8142;48.242;11.644;2022-08-11T07:19:23;4.70;;;2.90;;
16075;SDS011;8142;48.242;11.644;2022-08-11T07:22:09;4.17;;;2.70;;
16075;SDS011;8142;48.242;11.644;2022-08-11T07:25:02;2.80;;;2.60;;
16075;SDS011;8142;48.242;11.644;2022-08-11T07:27:59;4.47;;;2.93;;
16075;SDS011;8142;48.242;11.644;2022-08-11T07:30:46;2.63;;;2.40;;
16075;SDS011;8142;48.242;11.644;2022-08-11T07:33:18;3.17;;;2.87;;
16075;SDS011;8142;48.242;11.644;2022-08-11T07:35:55;5.83;;;3.00;;
16075;SDS011;8142;48.242;11.644;2022-08-11T07:38:25;4.47;;;3.00;;
16075;SDS011;8142;48.242;11.644;2022-08-11T07:41:13;3.10;;;2.80;;
16075;SDS011;8142;48.242;11.644;2022-08-11T07:43:40;5.03;;;3.27;;
16075;SDS011;8142;48.242;11.644;2022-08-11T07:46:08;6.87;;;3.17;;
16075;SDS011;8142;48.242;11.644;2022-08-11T07:48:54;3.53;;;2.80;;
16075;SDS011;8142;48.242;11.644;2022-08-11T07:51:40;3.17;;;2.63;;
16075;SDS011;8142;48.242;11.644;2022-08-11T07:54:28;3.70;;;2.70;;
16075;SDS011;8142;48.242;11.644;2022-08-11T07:56:55;3.07;;;2.77;;
16075;SDS011;8142;48.242;11.644;2022-08-11T07:59:21;3.23;;;2.93;;
16075;SDS011;8142;48.242;11.644;2022-08-11T08:02:07;6.23;;;3.10;;
16075;SDS011;8142;48.242;11.644;2022-08-11T08:04:55;4.77;;;2.80;;
16075;SDS011;8142;48.242;11.644;2022-08-11T08:07:41;3.47;;;2.70;;
16075;SDS011;8142;48.242;11.644;2022-08-11T08:10:27;3.50;;;2.60;;
16075;SDS011;8142;48.242;11.644;2022-08-11T08:13:13;3.10;;;2.80;;
16075;SDS011;8142;48.242;11.644;2022-08-11T08:15:59;5.50;;;2.70;;
16075;SDS011;8142;48.242;11.644;2022-08-11T08:18:44;5.23;;;3.07;;
16075;SDS011;8142;48.242;11.644;2022-08-11T08:21:10;4.53;;;2.93;;
16075;SDS011;8142;48.242;11.644;2022-08-11T08:23:39;3.73;;;2.60;;
16075;SDS011;8142;48.242;11.644;2022-08-11T08:26:08;3.53;;;2.63;;
16075;SDS011;8142;48.242;11.644;2022-08-11T08:28:56;4.47;;;2.90;;
16075;SDS011;8142;48.242;11.644;2022-08-11T08:31:43;4.47;;;2.90;;
16075;SDS011;8142;48.242;11.644;2022-08-11T08:34:11;3.97;;;2.97;;
16075;SDS011;8142;48.242;11.644;2022-08-11T08:36:38;5.80;;;3.00;;
16075;SDS011;8142;48.242;11.644;2022-08-11T08:39:06;4.20;;;2.70;;
16075;SDS011;8142;48.242;11.644;2022-08-11T08:41:32;2.80;;;2.60;;
16075;SDS011;8142;48.242;11.644;2022-08-11T08:44:03;3.83;;;2.80;;
16075;SDS011;8142;48.242;11.644;2022-08-11T08:46:38;3.17;;;2.70;;
16075;SDS011;8142;48.242;11.644;2022-08-11T08:49:08;4.97;;;2.50;;
16075;SDS011;8142;48.242;11.644;2022-08-11T08:51:37;5.53;;;2.87;;
16075;SDS011;8142;48.242;11.644;2022-08-11T08:54:06;4.50;;;2.47;;
16075;SDS011;8142;48.242;11.644;2022-08-11T08:56:45;3.33;;;2.50;;
16075;SDS011;8142;48.242;11.644;2022-08-11T08:59:13;4.50;;;2.50;;
16075;SDS011;8142;48.242;11.644;2022-08-11T09:02:02;5.53;;;3.03;;
16075;SDS011;8142;48.242;11.644;2022-08-11T09:04:27;3.60;;;2.77;;
16075;SDS011;8142;48.242;11.644;2022-08-11T09:06:57;3.63;;;2.60;;
16075;SDS011;8142;48.242;11.644;2022-08-11T09:09:24;5.20;;;2.60;;
16075;SDS011;8142;48.242;11.644;2022-08-11T09:11:51;4.30;;;2.60;;
16075;SDS011;8142;48.242;11.644;2022-08-11T09:14:21;5.47;;;3.17;;
16075;SDS011;8142;48.242;11.644;2022-08-11T09:16:50;4.43;;;3.03;;
16075;SDS011;8142;48.242;11.644;2022-08-11T09:19:17;3.47;;;2.73;;
16075;SDS011;8142;48.242;11.644;2022-08-11T09:21:46;3.93;;;2.40;;
16075;SDS011;8142;48.242;11.644;2022-08-11T09:24:33;3.53;;;3.17;;
16075;SDS011;8142;48.242;11.644;2022-08-11T09:27:19;3.83;;;2.70;;
16075;SDS011;8142;48.242;11.644;2022-08-11T09:29:46;3.50;;;2.77;;
16075;SDS011;8142;48.242;11.644;2022-08-11T09:32:13;4.80;;;2.70;;
16075;SDS011;8142;48.242;11.644;2022-08-11T09:34:39;4.97;;;2.90;;
16075;SDS011;8142;48.242;11.644;2022-08-11T09:37:05;3.60;;;2.20;;
16075;SDS011;8142;48.242;11.644;2022-08-11T09:39:51;3.23;;;2.50;;
16075;SDS011;8142;48.242;11.644;2022-08-11T09:42:38;3.77;;;2.40;;
16075;SDS011;8142;48.242;11.644;2022-08-11T09:45:24;5.10;;;2.50;;
16075;SDS011;8142;48.242;11.644;2022-08-11T09:47:50;3.47;;;2.23;;
16075;SDS011;8142;48.242;11.644;2022-08-11T09:50:16;2.77;;;2.20;;
16075;SDS011;8142;48.242;11.644;2022-08-11T09:52:43;4.27;;;2.70;;
16075;SDS011;8142;48.242;11.644;2022-08-11T09:55:12;3.83;;;2.30;;
16075;SDS011;8142;48.242;11.644;2022-08-11T09:57:40;2.83;;;2.50;;
16075;SDS011;8142;48.242;11.644;2022-08-11T10:00:29;2.97;;;2.23;;
16075;SDS011;8142;48.242;11.644;2022-08-11T10:02:56;4.70;;;2.30;;
16075;SDS011;8142;48.242;11.644;2022-08-11T10:05:23;3.50;;;2.67;;
16075;SDS011;8142;48.242;11.644;2022-08-11T10:08:10;3.87;;;2.60;;
16075;SDS011;8142;48.242;11.644;2022-08-11T10:10:38;3.00;;;2.30;;
16075;SDS011;8142;48.242;11.644;2022-08-11T10:13:06;3.30;;;2.27;;
16075;SDS011;8142;48.242;11.644;2022-08-11T10:15:39;3.93;;;2.40;;
16075;SDS011;8142;48.242;11.644;2022-08-11T10:18:10;4.23;;;2.47;;
16075;SDS011;8142;48.242;11.644;2022-08-11T10:21:02;2.93;;;2.30;;
16075;SDS011;8142;48.242;11.644;2022-08-11T10:23:34;2.50;;;2.30;;
16075;SDS011;8142;48.242;11.644;2022-08-11T10:26:22;3.57;;;2.10;;
16075;SDS011;8142;48.242;11.644;2022-08-11T10:29:08;4.87;;;2.40;;
16075;SDS011;8142;48.242;11.644;2022-08-11T10:31:55;4.20;;;2.10;;
16075;SDS011;8142;48.242;11.644;2022-08-11T10:34:40;2.93;;;2.23;;
16075;SDS011;8142;48.242;11.644;2022-08-11T10:37:10;4.80;;;2.40;;
16075;SDS011;8142;48.242;11.644;2022-08-11T10:39:36;2.97;;;2.47;;
16075;SDS011;8142;48.242;11.644;2022-08-11T10:42:04;2.30;;;2.10;;
16075;SDS011;8142;48.242;11.644;2022-08-11T10:44:51;3.10;;;2.20;;
16075;SDS011;8142;48.242;11.644;2022-08-11T10:47:18;3.83;;;2.30;;
16075;SDS011;8142;48.242;11.644;2022-08-11T10:50:01;3.07;;;2.27;;
16075;SDS011;8142;48.242;11.644;2022-08-11T10:52:53;3.97;;;2.33;;
16075;SDS011;8142;48.242;11.644;2022-08-11T10:55:40;2.63;;;2.43;;
16075;SDS011;8142;48.242;11.644;2022-08-11T10:58:26;2.43;;;2.00;;
16075;SDS011;8142;48.242;11.644;2022-08-11T11:01:18;3.83;;;2.47;;
16075;SDS011;8142;48.242;11.644;2022-08-11T11:03:51;4.60;;;2.10;;
16075;SDS011;8142;48.242;11.644;2022-08-11T11:06:27;3.37;;;2.40;;
16075;SDS011;8142;48.242;11.644;2022-08-11T11:09:04;3.10;;;1.90;;
16075;SDS011;8142;48.242;11.644;2022-08-11T11:11:42;2.33;;;2.13;;
16075;SDS011;8142;48.242;11.644;2022-08-11T11:14:31;2.03;;;1.90;;
16075;SDS011;8142;48.242;11.644;2022-08-11T11:17:40;2.70;;;2.17;;
16075;SDS011;8142;48.242;11.644;2022-08-11T11:23:15;3.17;;;2.30;;
16075;SDS011;8142;48.242;11.644;2022-08-11T11:29:19;4.13;;;2.10;;
16075;SDS011;8142;48.242;11.644;2022-08-11T11:37:33;2.97;;;2.27;;
16075;SDS011;8142;48.242;11.644;2022-08-11T11:40:00;2.63;;;1.90;;
16075;SDS011;8142;48.242;11.644;2022-08-11T11:42:34;2.83;;;2.30;;
16075;SDS011;8142;48.242;11.644;2022-08-11T11:45:01;2.30;;;2.10;;
16075;SDS011;8142;48.242;11.644;2022-08-11T11:47:29;2.43;;;2.23;;
16075;SDS011;8142;48.242;11.644;2022-08-11T11:49:56;2.93;;;1.97;;
16075;SDS011;8142;48.242;11.644;2022-08-11T11:52:22;2.43;;;2.20;;
16075;SDS011;8142;48.242;11.644;2022-08-11T11:54:49;3.77;;;2.10;;
16075;SDS011;8142;48.242;11.644;2022-08-11T11:57:20;4.77;;;2.10;;
16075;SDS011;8142;48.242;11.644;2022-08-11T12:00:06;2.73;;;2.20;;
16075;SDS011;8142;48.242;11.644;2022-08-11T12:03:00;2.73;;;2.00;;
16075;SDS011;8142;48.242;11.644;2022-08-11T12:05:30;2.07;;;1.97;;
16075;SDS011;8142;48.242;11.644;2022-08-11T12:07:58;2.73;;;2.10;;
16075;SDS011;8142;48.242;11.644;2022-08-11T12:10:45;2.33;;;1.90;;
16075;SDS011;8142;48.242;11.644;2022-08-11T12:13:40;3.43;;;2.17;;
16075;SDS011;8142;48.242;11.644;2022-08-11T12:16:09;2.27;;;2.07;;
16075;SDS011;8142;48.242;11.644;2022-08-11T12:18:39;4.67;;;2.10;;
16075;SDS011;8142;48.242;11.644;2022-08-11T12:21:07;2.67;;;2.27;;
16075;SDS011;8142;48.242;11.644;2022-08-11T12:23:35;5.60;;;2.20;;
16075;SDS011;8142;48.242;11.644;2022-08-11T12:26:21;3.27;;;1.97;;
16075;SDS011;8142;48.242;11.644;2022-08-11T12:29:08;2.00;;;1.90;;
16075;SDS011;8142;48.242;11.644;2022-08-11T12:31:36;2.57;;;2.27;;
16075;SDS011;8142;48.242;11.644;2022-08-11T12:34:04;2.17;;;1.97;;
16075;SDS011;8142;48.242;11.644;2022-08-11T12:36:36;4.77;;;2.30;;
16075;SDS011;8142;48.242;11.644;2022-08-11T12:39:23;2.17;;;2.00;;
16075;SDS011;8142;48.242;11.644;2022-08-11T12:42:13;2.87;;;2.30;;
16075;SDS011;8142;48.242;11.644;2022-08-11T12:44:59;2.63;;;2.07;;
16075;SDS011;8142;48.242;11.644;2022-08-11T12:47:47;3.50;;;2.17;;
16075;SDS011;8142;48.242;11.644;2022-08-11T12:50:33;3.00;;;1.97;;
16075;SDS011;8142;48.242;11.644;2022-08-11T12:53:23;2.40;;;2.00;;
16075;SDS011;8142;48.242;11.644;2022-08-11T12:55:56;2.50;;;2.30;;
16075;SDS011;8142;48.242;11.644;2022-08-11T12:58:47;2.20;;;2.00;;
16075;SDS011;8142;48.242;11.644;2022-08-11T13:01:15;2.60;;;1.97;;
16075;SDS011;8142;48.242;11.644;2022-08-11T13:04:00;2.90;;;2.17;;
16075;SDS011;8142;48.242;11.644;2022-08-11T13:06:46;3.87;;;2.17;;
16075;SDS011;8142;48.242;11.644;2022-08-11T13:09:12;3.80;;;2.30;;
16075;SDS011;8142;48.242;11.644;2022-08-11T13:11:38;2.07;;;1.90;;
16075;SDS011;8142;48.242;11.644;2022-08-11T13:14:31;2.53;;;2.07;;
16075;SDS011;8142;48.242;11.644;2022-08-11T13:16:58;2.70;;;1.83;;
16075;SDS011;8142;48.242;11.644;2022-08-11T13:19:44;2.43;;;2.20;;
16075;SDS011;8142;48.242;11.644;2022-08-11T13:22:12;4.27;;;2.20;;
16075;SDS011;8142;48.242;11.644;2022-08-11T13:24:42;3.37;;;2.03;;
16075;SDS011;8142;48.242;11.644;2022-08-11T13:27:09;2.40;;;2.13;;
16075;SDS011;8142;48.242;11.644;2022-08-11T13:29:36;2.30;;;2.10;;
16075;SDS011;8142;48.242;11.644;2022-08-11T13:32:05;2.03;;;1.80;;
16075;SDS011;8142;48.242;11.644;2022-08-11T13:34:32;2.30;;;2.10;;
16075;SDS011;8142;48.242;11.644;2022-08-11T13:37:05;4.17;;;2.20;;
16075;SDS011;8142;48.242;11.644;2022-08-11T13:39:33;4.40;;;2.40;;
16075;SDS011;8142;48.242;11.644;2022-08-11T13:42:01;2.10;;;1.90;;
16075;SDS011;8142;48.242;11.644;2022-08-11T13:44:29;3.63;;;1.90;;
16075;SDS011;8142;48.242;11.644;2022-08-11T13:46:58;2.70;;;2.00;;
16075;SDS011;8142;48.242;11.644;2022-08-11T13:49:32;3.43;;;2.00;;
16075;SDS011;8142;48.242;11.644;2022-08-11T13:52:01;2.43;;;1.80;;
16075;SDS011;8142;48.242;11.644;2022-08-11T13:54:33;2.33;;;1.80;;
16075;SDS011;8142;48.242;11.644;2022-08-11T13:57:04;2.80;;;2.10;;
16075;SDS011;8142;48.242;11.644;2022-08-11T13:59:31;5.37;;;2.30;;
16075;SDS011;8142;48.242;11.644;2022-08-11T14:01:58;2.00;;;1.90;;
16075;SDS011;8142;48.242;11.644;2022-08-11T14:04:35;2.10;;;1.90;;
16075;SDS011;8142;48.242;11.644;2022-08-11T14:07:08;2.10;;;1.90;;
16075;SDS011;8142;48.242;11.644;2022-08-11T14:09:37;2.13;;;1.90;;
16075;SDS011;8142;48.242;11.644;2022-08-11T14:12:07;2.90;;;1.90;;
16075;SDS011;8142;48.242;11.644;2022-08-11T14:15:03;3.93;;;1.97;;
16075;SDS011;8142;48.242;11.644;2022-08-11T14:17:34;2.23;;;1.67;;
16075;SDS011;8142;48.242;11.644;2022-08-11T14:20:06;2.37;;;1.93;;
16075;SDS011;8142;48.242;11.644;2022-08-11T14:22:34;2.20;;;2.00;;
16075;SDS011;8142;48.242;11.644;2022-08-11T14:25:03;3.57;;;2.00;;
16075;SDS011;8142;48.242;11.644;2022-08-11T14:27:30;3.40;;;2.10;;
16075;SDS011;8142;48.242;11.644;2022-08-11T14:29:57;2.77;;;2.07;;
16075;SDS011;8142;48.242;11.644;2022-08-11T14:32:23;3.20;;;2.00;;
16075;SDS011;8142;48.242;11.644;2022-08-11T14:34:49;2.07;;;1.90;;
16075;SDS011;8142;48.242;11.644;2022-08-11T14:37:20;2.60;;;2.03;;
16075;SDS011;8142;48.242;11.644;2022-08-11T14:39:50;2.10;;;1.90;;
16075;SDS011;8142;48.242;11.644;2022-08-11T14:42:19;4.90;;;1.80;;
16075;SDS011;8142;48.242;11.644;2022-08-11T14:45:25;2.40;;;1.90;;
16075;SDS011;8142;48.242;11.644;2022-08-11T14:48:09;2.53;;;2.00;;
16075;SDS011;8142;48.242;11.644;2022-08-11T14:50:36;3.10;;;1.90;;
16075;SDS011;8142;48.242;11.644;2022-08-11T14:53:08;1.97;;;1.77;;
16075;SDS011;8142;48.242;11.644;2022-08-11T14:55:38;1.80;;;1.70;;
16075;SDS011;8142;48.242;11.644;2022-08-11T14:58:25;3.33;;;1.80;;
16075;SDS011;8142;48.242;11.644;2022-08-11T15:00:56;3.33;;;1.80;;
16075;SDS011;8142;48.242;11.644;2022-08-11T15:03:23;2.00;;;1.80;;
16075;SDS011;8142;48.242;11.644;2022-08-11T15:05:52;4.07;;;2.03;;
16075;SDS011;8142;48.242;11.644;2022-08-11T15:08:20;2.23;;;1.80;;
16075;SDS011;8142;48.242;11.644;2022-08-11T15:11:08;2.30;;;1.90;;
16075;SDS011;8142;48.242;11.644;2022-08-11T15:13:57;2.60;;;1.70;;
16075;SDS011;8142;48.242;11.644;2022-08-11T15:16:25;3.10;;;1.97;;
16075;SDS011;8142;48.242;11.644;2022-08-11T15:19:11;1.93;;;1.80;;
16075;SDS011;8142;48.242;11.644;2022-08-11T15:21:38;2.97;;;1.60;;
16075;SDS011;8142;48.242;11.644;2022-08-11T15:24:23;3.40;;;1.97;;
16075;SDS011;8142;48.242;11.644;2022-08-11T15:26:49;3.77;;;2.30;;
16075;SDS011;8142;48.242;11.644;2022-08-11T15:29:36;2.20;;;2.00;;
16075;SDS011;8142;48.242;11.644;2022-08-11T15:32:22;3.13;;;2.10;;
16075;SDS011;8142;48.242;11.644;2022-08-11T15:35:09;2.23;;;2.03;;
16075;SDS011;8142;48.242;11.644;2022-08-11T15:37:56;6.03;;;2.20;;
16075;SDS011;8142;48.242;11.644;2022-08-11T15:40:29;2.43;;;2.20;;
16075;SDS011;8142;48.242;11.644;2022-08-11T15:46:13;1.90;;;1.80;;
16075;SDS011;8142;48.242;11.644;2022-08-11T15:48:50;2.47;;;1.73;;
16075;SDS011;8142;48.242;11.644;2022-08-11T15:51:35;2.30;;;1.83;;
16075;SDS011;8142;48.242;11.644;2022-08-11T15:54:10;2.17;;;1.80;;
16075;SDS011;8142;48.242;11.644;2022-08-11T15:56:41;2.20;;;1.73;;
16075;SDS011;8142;48.242;11.644;2022-08-11T15:59:12;3.63;;;1.80;;
16075;SDS011;8142;48.242;11.644;2022-08-11T16:01:58;3.80;;;2.07;;
16075;SDS011;8142;48.242;11.644;2022-08-11T16:04:45;2.53;;;1.80;;
16075;SDS011;8142;48.242;11.644;2022-08-11T16:07:13;4.83;;;1.83;;
16075;SDS011;8142;48.242;11.644;2022-08-11T16:09:42;2.93;;;1.83;;
16075;SDS011;8142;48.242;11.644;2022-08-11T16:12:13;1.73;;;1.63;;
16075;SDS011;8142;48.242;11.644;2022-08-11T16:15:00;3.20;;;2.00;;
16075;SDS011;8142;48.242;11.644;2022-08-11T16:17:51;2.93;;;1.80;;
16075;SDS011;8142;48.242;11.644;2022-08-11T16:20:22;4.10;;;1.83;;
16075;SDS011;8142;48.242;11.644;2022-08-11T16:22:51;3.60;;;1.90;;
16075;SDS011;8142;48.242;11.644;2022-08-11T16:25:21;2.27;;;1.90;;
16075;SDS011;8142;48.242;11.644;2022-08-11T16:27:55;2.37;;;2.07;;
16075;SDS011;8142;48.242;11.644;2022-08-11T16:30:30;1.93;;;1.70;;
16075;SDS011;8142;48.242;11.644;2022-08-11T16:33:00;2.00;;;1.80;;
16075;SDS011;8142;48.242;11.644;2022-08-11T16:35:30;2.17;;;1.97;;
16075;SDS011;8142;48.242;11.644;2022-08-11T16:38:18;2.10;;;1.70;;
16075;SDS011;8142;48.242;11.644;2022-08-11T16:41:08;2.33;;;1.90;;
16075;SDS011;8142;48.242;11.644;2022-08-11T16:43:38;5.23;;;1.80;;
16075;SDS011;8142;48.242;11.644;2022-08-11T16:46:25;2.10;;;1.90;;
16075;SDS011;8142;48.242;11.644;2022-08-11T16:49:32;2.07;;;1.80;;
16075;SDS011;8142;48.242;11.644;2022-08-11T16:51:58;3.30;;;1.70;;
16075;SDS011;8142;48.242;11.644;2022-08-11T16:54:31;3.10;;;1.80;;
16075;SDS011;8142;48.242;11.644;2022-08-11T16:56:59;2.57;;;1.70;;
16075;SDS011;8142;48.242;11.644;2022-08-11T16:59:50;1.70;;;1.60;;
16075;SDS011;8142;48.242;11.644;2022-08-11T17:02:19;3.07;;;1.67;;
16075;SDS011;8142;48.242;11.644;2022-08-11T17:05:07;2.90;;;1.83;;
16075;SDS011;8142;48.242;11.644;2022-08-11T17:07:59;1.87;;;1.70;;
16075;SDS011;8142;48.242;11.644;2022-08-11T17:10:52;1.60;;;1.50;;
16075;SDS011;8142;48.242;11.644;2022-08-11T17:13:46;2.63;;;1.73;;
16075;SDS011;8142;48.242;11.644;2022-08-11T17:16:21;3.27;;;1.50;;
16075;SDS011;8142;48.242;11.644;2022-08-11T17:18:56;3.77;;;1.70;;
16075;SDS011;8142;48.242;11.644;2022-08-11T17:21:26;2.53;;;1.70;;
16075;SDS011;8142;48.242;11.644;2022-08-11T17:23:59;1.97;;;1.73;;
16075;SDS011;8142;48.242;11.644;2022-08-11T17:26:32;1.90;;;1.67;;
16075;SDS011;8142;48.242;11.644;2022-08-11T17:31:51;2.00;;;1.80;;
16075;SDS011;8142;48.242;11.644;2022-08-11T17:34:38;2.87;;;1.80;;
16075;SDS011;8142;48.242;11.644;2022-08-11T17:37:24;3.90;;;1.70;;
16075;SDS011;8142;48.242;11.644;2022-08-11T17:39:52;1.90;;;1.70;;
16075;SDS011;8142;48.242;11.644;2022-08-11T17:42:20;3.10;;;1.67;;
16075;SDS011;8142;48.242;11.644;2022-08-11T17:45:07;2.37;;;1.67;;
16075;SDS011;8142;48.242;11.644;2022-08-11T17:48:01;1.73;;;1.63;;
16075;SDS011;8142;48.242;11.644;2022-08-11T17:50:47;1.73;;;1.60;;
16075;SDS011;8142;48.242;11.644;2022-08-11T17:53:15;2.93;;;1.73;;
16075;SDS011;8142;48.242;11.644;2022-08-11T17:56:01;2.00;;;1.53;;
16075;SDS011;8142;48.242;11.644;2022-08-11T17:58:47;3.43;;;1.70;;
16075;SDS011;8142;48.242;11.644;2022-08-11T18:01:36;1.97;;;1.87;;
16075;SDS011;8142;48.242;11.644;2022-08-11T18:04:04;2.20;;;1.70;;
16075;SDS011;8142;48.242;11.644;2022-08-11T18:06:32;1.90;;;1.60;;
16075;SDS011;8142;48.242;11.644;2022-08-11T18:09:02;1.73;;;1.50;;
16075;SDS011;8142;48.242;11.644;2022-08-11T18:11:48;1.87;;;1.70;;
16075;SDS011;8142;48.242;11.644;2022-08-11T18:14:35;2.40;;;1.70;;
16075;SDS011;8142;48.242;11.644;2022-08-11T18:17:21;1.77;;;1.67;;
16075;SDS011;8142;48.242;11.644;2022-08-11T18:20:05;1.97;;;1.60;;
16075;SDS011;8142;48.242;11.644;2022-08-11T18:22:51;1.60;;;1.50;;
16075;SDS011;8142;48.242;11.644;2022-08-11T18:25:38;2.37;;;1.63;;
16075;SDS011;8142;48.242;11.644;2022-08-11T18:28:28;2.57;;;1.73;;
16075;SDS011;8142;48.242;11.644;2022-08-11T18:31:18;4.30;;;1.70;;
16075;SDS011;8142;48.242;11.644;2022-08-11T18:34:06;3.17;;;1.80;;
16075;SDS011;8142;48.242;11.644;2022-08-11T18:39:44;3.80;;;1.50;;
16075;SDS011;8142;48.242;11.644;2022-08-11T18:42:32;1.90;;;1.70;;
16075;SDS011;8142;48.242;11.644;2022-08-11T18:45:18;2.03;;;1.83;;
16075;SDS011;8142;48.242;11.644;2022-08-11T18:48:09;4.80;;;2.10;;
16075;SDS011;8142;48.242;11.644;2022-08-11T18:50:56;2.10;;;1.67;;
16075;SDS011;8142;48.242;11.644;2022-08-11T18:53:46;4.50;;;1.90;;
16075;SDS011;8142;48.242;11.644;2022-08-11T18:56:33;1.70;;;1.60;;
16075;SDS011;8142;48.242;11.644;2022-08-11T18:59:18;2.60;;;1.70;;
16075;SDS011;8142;48.242;11.644;2022-08-11T19:02:07;2.50;;;1.80;;
16075;SDS011;8142;48.242;11.644;2022-08-11T19:04:53;2.47;;;1.63;;